Time;durP1;ratioP1;P1;durP2;ratioP2;P2;SDS_P1;SDS_P2;PMS_P1;PMS_P2;Temp;Humidity;BMP_temperature;BMP_pressure;BME280_temperature;BME280_humidity;BME280_pressure;Samples;Min_cycle;Max_cycle;Signal;HPM_P1;HPM_P2
2023/06/30 00:01:33;;;;;;;;;;;;;;;;;;5088597;28;19924;-64
2023/06/30 00:03:59;;;;;;;;;;;;;;;;;;5087414;28;19927;-64
2023/06/30 00:06:25;;;;;;;;;;;;;;;;;;5079714;28;19928;-64
2023/06/30 00:08:51;;;;;;;;;;;;;;;;;;5090007;28;19920;-64
2023/06/30 00:11:17;;;;;;;;;;;;;;;;;;5073392;28;20549;-64
2023/06/30 00:13:43;;;;;;;;;;;;;;;;;;5084943;28;19998;-64
2023/06/30 00:16:08;;;;;;;;;;;;;;;;;;5085169;28;20328;-64
2023/06/30 00:18:34;;;;;;;;;;;;;;;;;;5091467;28;20019;-64
2023/06/30 00:21:01;;;;;;;;;;;;;;;;;;5089497;28;20283;-64
2023/06/30 00:23:27;;;;;;;;;;;;;;;;;;5077941;28;19927;-64
2023/06/30 00:25:53;;;;;;;;;;;;;;;;;;5091710;28;20273;-64
2023/06/30 00:28:19;;;;;;;;;;;;;;;;;;5090939;28;19920;-65
2023/06/30 00:30:45;;;;;;;;;;;;;;;;;;5089372;28;19920;-64
2023/06/30 00:33:11;;;;;;;;;;;;;;;;;;5080533;28;20388;-64
2023/06/30 00:35:37;;;;;;;;;;;;;;;;;;5085272;28;19955;-64
2023/06/30 00:38:03;;;;;;;;;;;;;;;;;;5091778;28;19920;-64
2023/06/30 00:40:29;;;;;;;;;;;;;;;;;;5090349;28;20678;-64
2023/06/30 00:42:55;;;;;;;;;;;;;;;;;;5093250;28;20010;-64
2023/06/30 00:45:20;;;;;;;;;;;;;;;;;;5093319;28;20005;-64
2023/06/30 00:47:46;;;;;;;;;;;;;;;;;;5093243;28;19920;-64
2023/06/30 00:50:12;;;;;;;;;;;;;;;;;;5092931;28;19920;-64
2023/06/30 00:52:38;;;;;;;;;;;;;;;;;;5093479;22;20396;-64
2023/06/30 00:55:04;;;;;;;;;;;;;;;;;;5060145;28;19924;-64
2023/06/30 00:57:30;;;;;;;;;;;;;;;;;;5061457;28;19921;-64
2023/06/30 00:59:56;;;;;;;;;;;;;;;;;;5063109;28;20641;-64
2023/06/30 01:02:22;;;;;;;;;;;;;;;;;;5062151;28;20018;-65
2023/06/30 01:04:48;;;;;;;;;;;;;;;;;;5066082;28;20257;-64
2023/06/30 01:07:14;;;;;;;;;;;;;;;;;;5068759;28;19926;-64
2023/06/30 01:09:39;;;;;;;;;;;;;;;;;;5064162;28;19933;-64
2023/06/30 01:12:05;;;;;;;;;;;;;;;;;;5074948;28;20289;-64
2023/06/30 01:14:31;;;;;;;;;;;;;;;;;;5074104;28;19929;-64
2023/06/30 01:16:57;;;;;;;;;;;;;;;;;;5073551;28;20003;-64
2023/06/30 01:19:25;;;;;;;;;;;;;;;;;;5071728;28;19924;-64
2023/06/30 01:21:51;;;;;;;;;;;;;;;;;;5063384;28;19978;-64
2023/06/30 01:24:17;;;;;;;;;;;;;;;;;;5070613;28;20297;-64
2023/06/30 01:26:43;;;;;;;;;;;;;;;;;;5070110;28;19920;-64
2023/06/30 01:29:10;;;;;;;;;;;;;;;;;;5074566;28;19924;-64
2023/06/30 01:31:36;;;;;;;;;;;;;;;;;;5065899;28;19974;-64
2023/06/30 01:34:01;;;;;;;;;;;;;;;;;;5072886;28;19964;-64
2023/06/30 01:36:27;;;;;;;;;;;;;;;;;;5071479;28;19967;-64
2023/06/30 01:38:53;;;;;;;;;;;;;;;;;;5067232;28;19927;-64
2023/06/30 01:41:19;;;;;;;;;;;;;;;;;;5070549;28;19970;-64
2023/06/30 01:43:45;;;;;;;;;;;;;;;;;;5071170;28;20377;-64
2023/06/30 01:46:11;;;;;;;;;;;;;;;;;;5072164;28;19931;-64
2023/06/30 01:48:37;;;;;;;;;;;;;;;;;;5071474;28;19956;-64
2023/06/30 01:51:03;;;;;;;;;;;;;;;;;;5068923;28;19928;-64
2023/06/30 01:53:29;;;;;;;;;;;;;;;;;;5071435;28;20283;-64
2023/06/30 01:55:55;;;;;;;;;;;;;;;;;;5073189;28;19921;-64
2023/06/30 01:58:20;;;;;;;;;;;;;;;;;;5071854;28;20420;-64
2023/06/30 02:00:46;;;;;;;;;;;;;;;;;;5069160;28;19955;-64
2023/06/30 02:03:12;;;;;;;;;;;;;;;;;;5073589;28;20019;-64
2023/06/30 02:05:38;;;;;;;;;;;;;;;;;;5073307;28;19926;-64
2023/06/30 02:08:04;;;;;;;;;;;;;;;;;;5070797;28;19920;-64
2023/06/30 02:10:31;;;;;;;;;;;;;;;;;;5070577;28;20007;-64
2023/06/30 02:12:57;;;;;;;;;;;;;;;;;;5068421;28;19921;-64
2023/06/30 02:15:23;;;;;;;;;;;;;;;;;;5072093;28;20314;-64
2023/06/30 02:17:49;;;;;;;;;;;;;;;;;;5071169;28;19920;-64
2023/06/30 02:20:14;;;;;;;;;;;;;;;;;;5059651;28;19920;-64
2023/06/30 02:22:40;;;;;;;;;;;;;;;;;;5052075;28;19925;-64
2023/06/30 02:25:06;;;;;;;;;;;;;;;;;;5070277;28;20018;-64
2023/06/30 02:27:32;;;;;;;;;;;;;;;;;;5069009;28;19999;-64
2023/06/30 02:30:04;;;;;;;;;;;;;;;;;;5068796;28;20358;-64
2023/06/30 02:32:30;;;;;;;;;;;;;;;;;;5069206;28;19926;-64
2023/06/30 02:34:56;;;;;;;;;;;;;;;;;;5061532;28;20616;-64
2023/06/30 02:37:22;;;;;;;;;;;;;;;;;;5070209;28;19983;-64
2023/06/30 02:39:48;;;;;;;;;;;;;;;;;;5068593;28;19924;-64
2023/06/30 02:42:14;;;;;;;;;;;;;;;;;;5067849;28;20266;-64
2023/06/30 02:44:40;;;;;;;;;;;;;;;;;;5061573;28;19924;-64
2023/06/30 02:47:05;;;;;;;;;;;;;;;;;;5068152;28;19932;-64
2023/06/30 02:49:32;;;;;;;;;;;;;;;;;;5071107;28;19931;-64
2023/06/30 02:51:58;;;;;;;;;;;;;;;;;;5068962;28;19990;-64
2023/06/30 02:54:24;;;;;;;;;;;;;;;;;;5070493;28;20037;-64
2023/06/30 02:56:49;;;;;;;;;;;;;;;;;;5070856;28;20007;-64
2023/06/30 02:59:15;;;;;;;;;;;;;;;;;;5068496;28;19927;-64
2023/06/30 03:01:41;;;;;;;;;;;;;;;;;;5068605;28;20400;-64
2023/06/30 03:04:07;;;;;;;;;;;;;;;;;;5069289;28;19932;-64
2023/06/30 03:06:33;;;;;;;;;;;;;;;;;;5065013;28;19931;-64
2023/06/30 03:08:59;;;;;;;;;;;;;;;;;;5068010;28;19920;-64
2023/06/30 03:11:25;;;;;;;;;;;;;;;;;;5065606;28;19974;-64
2023/06/30 03:13:52;;;;;;;;;;;;;;;;;;5070406;28;19920;-64
2023/06/30 03:16:17;;;;;;;;;;;;;;;;;;5070374;28;19980;-64
2023/06/30 03:18:44;;;;;;;;;;;;;;;;;;5070890;28;19920;-64
2023/06/30 03:21:10;;;;;;;;;;;;;;;;;;5070467;28;19954;-64
2023/06/30 03:23:36;;;;;;;;;;;;;;;;;;5056763;28;19929;-64
2023/06/30 03:26:02;;;;;;;;;;;;;;;;;;5068310;28;19932;-64
2023/06/30 03:28:28;;;;;;;;;;;;;;;;;;5061789;28;19921;-64
2023/06/30 03:30:53;;;;;;;;;;;;;;;;;;5064329;28;19921;-64
2023/06/30 03:33:21;;;;;;;;;;;;;;;;;;5069879;28;20074;-64
2023/06/30 03:35:48;;;;;;;;;;;;;;;;;;5071632;28;19924;-64
2023/06/30 03:38:14;;;;;;;;;;;;;;;;;;5066036;28;19928;-64
2023/06/30 03:40:40;;;;;;;;;;;;;;;;;;5058993;28;20420;-64
2023/06/30 03:43:05;;;;;;;;;;;;;;;;;;5070726;28;19932;-64
2023/06/30 03:45:31;;;;;;;;;;;;;;;;;;5071182;28;19931;-64
2023/06/30 03:47:57;;;;;;;;;;;;;;;;;;5054758;28;20285;-64
2023/06/30 03:50:23;;;;;;;;;;;;;;;;;;5056308;28;19920;-64
2023/06/30 03:52:49;;;;;;;;;;;;;;;;;;5071779;28;19928;-64
2023/06/30 03:55:15;;;;;;;;;;;;;;;;;;5070017;28;19959;-64
2023/06/30 03:57:41;;;;;;;;;;;;;;;;;;5062460;28;19951;-64
2023/06/30 04:00:11;;;;;;;;;;;;;;;;;;5070114;28;19921;-64
2023/06/30 04:02:37;;;;;;;;;;;;;;;;;;5071146;28;19931;-64
2023/06/30 04:05:03;;;;;;;;;;;;;;;;;;5068758;28;19921;-64
2023/06/30 04:07:29;;;;;;;;;;;;;;;;;;5068768;28;20397;-64
2023/06/30 04:09:55;;;;;;;;;;;;;;;;;;5070421;28;19928;-64
2023/06/30 04:12:21;;;;;;;;;;;;;;;;;;5066828;28;20015;-64
2023/06/30 04:14:48;;;;;;;;;;;;;;;;;;5068074;28;20012;-64
2023/06/30 04:17:14;;;;;;;;;;;;;;;;;;5069588;28;19920;-64
2023/06/30 04:19:40;;;;;;;;;;;;;;;;;;5073993;28;19927;-64
2023/06/30 04:22:05;;;;;;;;;;;;;;;;;;5067053;28;19921;-64
2023/06/30 04:24:31;;;;;;;;;;;;;;;;;;5072744;28;19940;-64
2023/06/30 04:26:57;;;;;;;;;;;;;;;;;;5072368;28;19921;-64
2023/06/30 04:29:23;;;;;;;;;;;;;;;;;;5073047;28;19928;-64
2023/06/30 04:31:50;;;;;;;;;;;;;;;;;;5069807;28;19931;-64
2023/06/30 04:34:16;;;;;;;;;;;;;;;;;;5056392;28;19920;-64
2023/06/30 04:36:41;;;;;;;;;;;;;;;;;;5071465;28;20503;-64
2023/06/30 04:39:07;;;;;;;;;;;;;;;;;;5074428;28;19927;-64
2023/06/30 04:41:33;;;;;;;;;;;;;;;;;;5073280;28;19983;-64
2023/06/30 04:43:59;;;;;;;;;;;;;;;;;;5072835;28;19924;-64
2023/06/30 04:46:25;;;;;;;;;;;;;;;;;;5069753;28;20104;-64
2023/06/30 04:48:51;;;;;;;;;;;;;;;;;;5067162;28;19925;-64
2023/06/30 04:51:18;;;;;;;;;;;;;;;;;;5069304;28;20251;-64
2023/06/30 04:53:44;;;;;;;;;;;;;;;;;;5070004;28;19925;-64
2023/06/30 04:56:10;;;;;;;;;;;;;;;;;;5070242;28;19930;-64
2023/06/30 04:58:36;;;;;;;;;;;;;;;;;;5072337;28;19920;-64
2023/06/30 05:01:04;;;;;;;;;;;;;;;;;;5068799;28;19920;-64
2023/06/30 05:03:30;;;;;;;;;;;;;;;;;;5072319;28;19931;-64
2023/06/30 05:05:57;;;;;;;;;;;;;;;;;;5070874;28;19920;-64
2023/06/30 05:08:23;;;;;;;;;;;;;;;;;;5073737;28;19959;-64
2023/06/30 05:10:49;;;;;;;;;;;;;;;;;;5072187;28;19959;-64
2023/06/30 05:13:15;;;;;;;;;;;;;;;;;;5073974;28;19999;-64
2023/06/30 05:15:41;;;;;;;;;;;;;;;;;;5071669;28;20167;-64
2023/06/30 05:18:07;;;;;;;;;;;;;;;;;;5063227;28;19925;-64
2023/06/30 05:20:33;;;;;;;;;;;;;;;;;;5073363;28;19927;-64
2023/06/30 05:22:59;;;;;;;;;;;;;;;;;;5069371;28;19928;-64
2023/06/30 05:25:25;;;;;;;;;;;;;;;;;;5073185;28;19920;-64
2023/06/30 05:27:51;;;;;;;;;;;;;;;;;;5073846;28;19947;-64
2023/06/30 05:30:17;;;;;;;;;;;;;;;;;;5073461;28;19920;-64
2023/06/30 05:32:43;;;;;;;;;;;;;;;;;;5067587;28;19975;-64
2023/06/30 05:35:09;;;;;;;;;;;;;;;;;;5073367;28;19925;-64
2023/06/30 05:37:35;;;;;;;;;;;;;;;;;;5083109;28;20320;-64
2023/06/30 05:40:01;;;;;;;;;;;;;;;;;;5066425;28;19920;-64
2023/06/30 05:42:26;;;;;;;;;;;;;;;;;;5067572;28;20011;-64
2023/06/30 05:44:52;;;;;;;;;;;;;;;;;;5072046;28;19920;-64
2023/06/30 05:47:18;;;;;;;;;;;;;;;;;;5072962;28;19924;-64
2023/06/30 05:49:44;;;;;;;;;;;;;;;;;;5073241;28;19920;-64
2023/06/30 05:52:10;;;;;;;;;;;;;;;;;;5071418;28;19924;-64
2023/06/30 05:54:36;;;;;;;;;;;;;;;;;;5072848;28;19947;-65
2023/06/30 05:57:02;;;;;;;;;;;;;;;;;;5070502;28;20378;-65
2023/06/30 05:59:30;;;;;;;;;;;;;;;;;;5072464;28;19928;-65
2023/06/30 06:01:56;;;;;;;;;;;;;;;;;;5069876;28;19954;-65
2023/06/30 06:04:22;;;;;;;;;;;;;;;;;;5071686;28;20036;-63
2023/06/30 06:06:48;;;;;;;;;;;;;;;;;;5071677;28;19921;-63
2023/06/30 06:09:13;;;;;;;;;;;;;;;;;;5069814;28;20370;-63
2023/06/30 06:11:39;;;;;;;;;;;;;;;;;;5073145;28;19959;-63
2023/06/30 06:14:05;;;;;;;;;;;;;;;;;;5063579;28;20006;-63
2023/06/30 06:16:31;;;;;;;;;;;;;;;;;;5063357;28;20421;-63
2023/06/30 06:18:57;;;;;;;;;;;;;;;;;;5047463;28;19921;-63
2023/06/30 06:21:23;;;;;;;;;;;;;;;;;;5066004;28;19936;-63
2023/06/30 06:23:49;;;;;;;;;;;;;;;;;;5070524;28;19928;-63
2023/06/30 06:26:16;;;;;;;;;;;;;;;;;;5069760;28;19978;-63
2023/06/30 06:28:42;;;;;;;;;;;;;;;;;;5068620;28;19929;-63
2023/06/30 06:31:09;;;;;;;;;;;;;;;;;;5069109;28;19985;-63
2023/06/30 06:33:35;;;;;;;;;;;;;;;;;;5068254;28;20624;-63
2023/06/30 06:36:01;;;;;;;;;;;;;;;;;;5067459;28;19929;-63
2023/06/30 06:38:27;;;;;;;;;;;;;;;;;;5064605;28;19975;-63
2023/06/30 06:40:53;;;;;;;;;;;;;;;;;;5066521;28;19920;-63
2023/06/30 06:43:19;;;;;;;;;;;;;;;;;;5064157;28;19940;-66
2023/06/30 06:45:45;;;;;;;;;;;;;;;;;;5069110;28;19958;-66
2023/06/30 06:48:11;;;;;;;;;;;;;;;;;;5072208;28;19920;-66
2023/06/30 06:50:37;;;;;;;;;;;;;;;;;;5060959;28;19920;-65
2023/06/30 06:53:03;;;;;;;;;;;;;;;;;;5066892;28;19928;-66
2023/06/30 06:55:28;;;;;;;;;;;;;;;;;;5062396;28;19924;-66
2023/06/30 06:57:54;;;;;;;;;;;;;;;;;;5066544;28;20093;-66
2023/06/30 07:00:20;;;;;;;;;;;;;;;;;;5063523;28;19936;-66
2023/06/30 07:02:46;;;;;;;;;;;;;;;;;;5051749;28;19928;-66
2023/06/30 07:05:12;;;;;;;;;;;;;;;;;;5064066;28;19931;-66
2023/06/30 07:07:38;;;;;;;;;;;;;;;;;;5065417;28;19956;-66
2023/06/30 07:10:05;;;;;;;;;;;;;;;;;;5065606;28;19925;-66
2023/06/30 07:12:31;;;;;;;;;;;;;;;;;;5065292;28;19924;-66
2023/06/30 07:14:56;;;;;;;;;;;;;;;;;;5064118;28;20027;-67
2023/06/30 07:17:22;;;;;;;;;;;;;;;;;;5061646;28;19927;-65
2023/06/30 07:19:48;;;;;;;;;;;;;;;;;;5064813;28;19927;-65
2023/06/30 07:22:14;;;;;;;;;;;;;;;;;;5065063;28;19968;-66
2023/06/30 07:24:40;;;;;;;;;;;;;;;;;;5064793;28;19976;-66
2023/06/30 07:27:06;;;;;;;;;;;;;;;;;;5066367;28;19921;-66
2023/06/30 07:29:32;;;;;;;;;;;;;;;;;;5069145;28;19925;-66
2023/06/30 07:31:58;;;;;;;;;;;;;;;;;;5065971;28;19932;-66
2023/06/30 07:34:24;;;;;;;;;;;;;;;;;;5063211;28;20364;-61
2023/06/30 07:36:50;;;;;;;;;;;;;;;;;;5068055;28;19920;-61
2023/06/30 07:39:16;;;;;;;;;;;;;;;;;;5067778;28;19928;-61
2023/06/30 07:41:42;;;;;;;;;;;;;;;;;;5069567;28;19947;-61
2023/06/30 07:44:11;;;;;;;;;;;;;;;;;;5082980;28;19924;-61
2023/06/30 07:46:37;;;;;;;;;;;;;;;;;;5080141;28;19927;-61
2023/06/30 07:49:03;;;;;;;;;;;;;;;;;;5087543;28;19925;-61
2023/06/30 07:51:30;;;;;;;;;;;;;;;;;;5094689;28;20069;-61
2023/06/30 07:53:56;;;;;;;;;;;;;;;;;;5073807;28;20017;-61
2023/06/30 07:56:22;;;;;;;;;;;;;;;;;;5073348;28;19970;-61
2023/06/30 07:58:48;;;;;;;;;;;;;;;;;;5073282;28;20019;-61
2023/06/30 08:01:14;;;;;;;;;;;;;;;;;;5072184;28;20258;-61
2023/06/30 08:03:40;;;;;;;;;;;;;;;;;;5072527;28;19974;-61
2023/06/30 08:06:05;;;;;;;;;;;;;;;;;;5076877;28;19928;-61
2023/06/30 08:08:31;;;;;;;;;;;;;;;;;;5075669;28;19925;-61
2023/06/30 08:10:57;;;;;;;;;;;;;;;;;;5072637;28;19920;-61
2023/06/30 08:13:23;;;;;;;;;;;;;;;;;;5073704;28;20670;-61
2023/06/30 08:15:49;;;;;;;;;;;;;;;;;;5065972;28;19921;-61
2023/06/30 08:18:15;;;;;;;;;;;;;;;;;;5069509;28;19981;-60
2023/06/30 08:20:41;;;;;;;;;;;;;;;;;;5072632;28;19938;-61
2023/06/30 08:23:07;;;;;;;;;;;;;;;;;;5072771;28;19935;-60
2023/06/30 08:25:33;;;;;;;;;;;;;;;;;;5067610;28;19920;-60
2023/06/30 08:27:59;;;;;;;;;;;;;;;;;;5065434;28;19939;-60
2023/06/30 08:30:25;;;;;;;;;;;;;;;;;;5068972;28;19960;-61
2023/06/30 08:32:51;;;;;;;;;;;;;;;;;;5071669;28;19982;-61
2023/06/30 08:35:16;;;;;;;;;;;;;;;;;;5072927;28;20297;-60
2023/06/30 08:37:42;;;;;;;;;;;;;;;;;;5059129;28;20310;-60
2023/06/30 08:40:09;;;;;;;;;;;;;;;;;;5068328;28;20032;-61
2023/06/30 08:42:34;;;;;;;;;;;;;;;;;;5074842;28;19929;-60
2023/06/30 08:45:00;;;;;;;;;;;;;;;;;;5071546;28;19920;-60
2023/06/30 08:47:31;;;;;;;;;;;;;;;;;;5069535;28;19966;-60
2023/06/30 08:49:57;;;;;;;;;;;;;;;;;;5070270;28;20278;-60
2023/06/30 08:52:23;;;;;;;;;;;;;;;;;;5064618;28;19920;-60
2023/06/30 08:54:49;;;;;;;;;;;;;;;;;;5067382;28;20001;-60
2023/06/30 08:57:15;;;;;;;;;;;;;;;;;;5067730;28;19924;-60
2023/06/30 08:59:41;;;;;;;;;;;;;;;;;;5073480;28;19965;-60
2023/06/30 09:02:06;;;;;;;;;;;;;;;;;;5073372;28;20350;-61
2023/06/30 09:04:32;;;;;;;;;;;;;;;;;;5071927;28;19960;-61
2023/06/30 09:06:58;;;;;;;;;;;;;;;;;;5072082;28;20360;-60
2023/06/30 09:09:24;;;;;;;;;;;;;;;;;;5069448;28;19924;-60
2023/06/30 09:11:50;;;;;;;;;;;;;;;;;;5053962;28;19971;-60
2023/06/30 09:14:17;;;;;;;;;;;;;;;;;;5059968;28;20007;-60
2023/06/30 09:16:43;;;;;;;;;;;;;;;;;;5070055;28;19963;-60
2023/06/30 09:19:08;;;;;;;;;;;;;;;;;;5071770;28;20330;-61
2023/06/30 09:21:34;;;;;;;;;;;;;;;;;;5053850;28;19927;-60
2023/06/30 09:24:00;;;;;;;;;;;;;;;;;;5071318;28;19932;-61
2023/06/30 09:26:26;;;;;;;;;;;;;;;;;;5071337;28;19966;-60
2023/06/30 09:28:52;;;;;;;;;;;;;;;;;;5070014;28;19925;-61
2023/06/30 09:31:18;;;;;;;;;;;;;;;;;;5059708;28;19975;-61
2023/06/30 09:33:47;;;;;;;;;;;;;;;;;;5058404;28;20335;-61
2023/06/30 09:36:13;;;;;;;;;;;;;;;;;;5094382;22;20361;-66
2023/06/30 09:38:39;;;;;;;;;;;;;;;;;;5078208;28;19982;-67
2023/06/30 09:41:05;;;;;;;;;;;;;;;;;;5071761;28;19921;-66
2023/06/30 09:43:32;;;;;;;;;;;;;;;;;;5073505;28;19986;-67
2023/06/30 09:45:59;;;;;;;;;;;;;;;;;;5072626;28;19924;-66
2023/06/30 09:48:25;;;;;;;;;;;;;;;;;;5071736;28;20011;-66
2023/06/30 09:50:51;;;;;;;;;;;;;;;;;;5069161;28;20010;-67
2023/06/30 09:53:16;;;;;;;;;;;;;;;;;;5071243;28;20266;-66
2023/06/30 09:55:42;;;;;;;;;;;;;;;;;;5072015;28;19928;-67
2023/06/30 09:58:08;;;;;;;;;;;;;;;;;;5063824;28;19928;-67
2023/06/30 10:00:34;;;;;;;;;;;;;;;;;;5062932;28;19920;-67
2023/06/30 10:03:00;;;;;;;;;;;;;;;;;;5070301;28;19932;-66
2023/06/30 10:05:26;;;;;;;;;;;;;;;;;;5069043;28;19947;-67
2023/06/30 10:07:52;;;;;;;;;;;;;;;;;;5069776;28;20011;-66
2023/06/30 10:10:18;;;;;;;;;;;;;;;;;;5065807;28;19920;-66
2023/06/30 10:12:44;;;;;;;;;;;;;;;;;;5061259;28;20384;-66
2023/06/30 10:15:10;;;;;;;;;;;;;;;;;;5067630;28;20357;-66
2023/06/30 10:17:36;;;;;;;;;;;;;;;;;;5073397;28;20051;-67
2023/06/30 10:20:01;;;;;;;;;;;;;;;;;;5067456;28;19920;-66
2023/06/30 10:22:27;;;;;;;;;;;;;;;;;;5066892;28;19929;-66
2023/06/30 10:24:53;;;;;;;;;;;;;;;;;;5070068;28;19955;-66
2023/06/30 10:27:19;;;;;;;;;;;;;;;;;;5072396;28;20007;-66
2023/06/30 10:29:45;;;;;;;;;;;;;;;;;;5070830;28;19921;-66
2023/06/30 10:32:11;;;;;;;;;;;;;;;;;;5071046;28;19987;-66
2023/06/30 10:34:37;;;;;;;;;;;;;;;;;;5067476;28;19921;-67
2023/06/30 10:37:03;;;;;;;;;;;;;;;;;;5069601;28;20366;-66
2023/06/30 10:39:29;;;;;;;;;;;;;;;;;;5069696;28;19936;-66
2023/06/30 10:41:55;;;;;;;;;;;;;;;;;;5066682;28;19925;-67
2023/06/30 10:44:22;;;;;;;;;;;;;;;;;;5052966;28;20364;-67
2023/06/30 10:46:49;;;;;;;;;;;;;;;;;;5065519;28;19924;-66
2023/06/30 10:49:17;;;;;;;;;;;;;;;;;;5049617;28;19966;-66
2023/06/30 10:51:42;;;;;;;;;;;;;;;;;;5066283;28;19972;-66
2023/06/30 10:54:08;;;;;;;;;;;;;;;;;;5071297;28;19970;-66
2023/06/30 10:56:34;;;;;;;;;;;;;;;;;;5069165;28;19920;-67
2023/06/30 10:59:01;;;;;;;;;;;;;;;;;;5072550;28;19977;-67
2023/06/30 11:01:27;;;;;;;;;;;;;;;;;;5070424;28;20332;-66
2023/06/30 11:03:53;;;;;;;;;;;;;;;;;;5071200;28;19930;-67
2023/06/30 11:06:20;;;;;;;;;;;;;;;;;;5064210;28;21204;-66
2023/06/30 11:08:46;;;;;;;;;;;;;;;;;;5070148;28;19932;-66
2023/06/30 11:11:12;;;;;;;;;;;;;;;;;;5070331;28;19928;-67
2023/06/30 11:13:38;;;;;;;;;;;;;;;;;;5071359;28;19920;-66
2023/06/30 11:16:04;;;;;;;;;;;;;;;;;;5069528;28;19924;-67
2023/06/30 11:18:30;;;;;;;;;;;;;;;;;;5066841;28;20558;-67
2023/06/30 11:20:56;;;;;;;;;;;;;;;;;;5069846;28;19935;-67
2023/06/30 11:23:22;;;;;;;;;;;;;;;;;;5071272;28;19970;-67
2023/06/30 11:25:48;;;;;;;;;;;;;;;;;;5067242;28;20270;-67
2023/06/30 11:28:14;;;;;;;;;;;;;;;;;;5068622;28;20003;-67
2023/06/30 11:30:39;;;;;;;;;;;;;;;;;;5067977;28;19928;-66
2023/06/30 11:33:05;;;;;;;;;;;;;;;;;;5069347;28;20443;-67
2023/06/30 11:35:31;;;;;;;;;;;;;;;;;;5070608;28;19920;-67
2023/06/30 11:37:57;;;;;;;;;;;;;;;;;;5071368;28;20006;-67
2023/06/30 11:40:23;;;;;;;;;;;;;;;;;;5063817;28;20365;-67
2023/06/30 11:42:49;;;;;;;;;;;;;;;;;;5069917;28;19920;-67
2023/06/30 11:45:19;;;;;;;;;;;;;;;;;;5067177;28;19924;-67
2023/06/30 11:47:46;;;;;;;;;;;;;;;;;;5062745;28;19921;-67
2023/06/30 11:50:12;;;;;;;;;;;;;;;;;;5060226;28;19936;-67
2023/06/30 11:52:38;;;;;;;;;;;;;;;;;;5058548;28;19933;-67
2023/06/30 11:55:04;;;;;;;;;;;;;;;;;;5065868;28;20266;-67
2023/06/30 11:57:30;;;;;;;;;;;;;;;;;;5049534;28;20003;-67
2023/06/30 11:59:56;;;;;;;;;;;;;;;;;;5059745;28;20498;-67
2023/06/30 12:02:22;;;;;;;;;;;;;;;;;;5059418;28;19929;-67
2023/06/30 12:04:48;;;;;;;;;;;;;;;;;;5051293;28;19927;-67
2023/06/30 12:07:14;;;;;;;;;;;;;;;;;;5050898;28;19921;-67
2023/06/30 12:09:40;;;;;;;;;;;;;;;;;;5051124;28;19925;-67
2023/06/30 12:12:07;;;;;;;;;;;;;;;;;;5050649;28;19975;-67
2023/06/30 12:14:33;;;;;;;;;;;;;;;;;;5051255;28;19986;-67
2023/06/30 12:16:59;;;;;;;;;;;;;;;;;;5051701;28;19960;-67
2023/06/30 12:19:25;;;;;;;;;;;;;;;;;;5051591;28;19928;-67
2023/06/30 12:21:51;;;;;;;;;;;;;;;;;;5051461;28;19925;-67
2023/06/30 12:24:17;;;;;;;;;;;;;;;;;;5051487;28;19972;-67
2023/06/30 12:26:43;;;;;;;;;;;;;;;;;;5062958;28;19927;-67
2023/06/30 12:29:09;;;;;;;;;;;;;;;;;;5068676;28;19989;-67
2023/06/30 12:31:35;;;;;;;;;;;;;;;;;;5058634;28;19940;-67
2023/06/30 12:34:01;;;;;;;;;;;;;;;;;;5063148;28;19924;-67
2023/06/30 12:36:26;;;;;;;;;;;;;;;;;;5068474;28;19931;-67
2023/06/30 12:38:52;;;;;;;;;;;;;;;;;;5072159;28;19925;-66
2023/06/30 12:41:19;;;;;;;;;;;;;;;;;;5070188;28;20038;-67
2023/06/30 12:43:45;;;;;;;;;;;;;;;;;;5072944;28;19920;-67
2023/06/30 12:46:11;;;;;;;;;;;;;;;;;;5071636;28;20282;-67
2023/06/30 12:48:37;;;;;;;;;;;;;;;;;;5072573;28;19955;-67
2023/06/30 12:51:03;;;;;;;;;;;;;;;;;;5070938;28;19924;-67
2023/06/30 12:53:29;;;;;;;;;;;;;;;;;;5072990;28;19927;-67
2023/06/30 12:55:55;;;;;;;;;;;;;;;;;;5073677;28;20373;-67
2023/06/30 12:58:21;;;;;;;;;;;;;;;;;;5070364;28;19932;-67
2023/06/30 13:00:47;;;;;;;;;;;;;;;;;;5071699;28;19932;-67
2023/06/30 13:03:13;;;;;;;;;;;;;;;;;;5059613;28;19943;-67
2023/06/30 13:05:40;;;;;;;;;;;;;;;;;;5071219;28;20370;-67
2023/06/30 13:08:06;;;;;;;;;;;;;;;;;;5071217;28;19920;-67
2023/06/30 13:10:32;;;;;;;;;;;;;;;;;;5074703;28;19935;-67
2023/06/30 13:12:57;;;;;;;;;;;;;;;;;;5071993;28;19920;-67
2023/06/30 13:15:23;;;;;;;;;;;;;;;;;;5070148;28;19925;-67
2023/06/30 13:17:50;;;;;;;;;;;;;;;;;;5071562;28;19966;-67
2023/06/30 13:20:16;;;;;;;;;;;;;;;;;;5068368;28;19927;-67
2023/06/30 13:22:41;;;;;;;;;;;;;;;;;;5074316;28;19928;-67
2023/06/30 13:25:07;;;;;;;;;;;;;;;;;;5074429;28;20332;-67
2023/06/30 13:27:33;;;;;;;;;;;;;;;;;;5074054;28;19920;-67
2023/06/30 13:29:59;;;;;;;;;;;;;;;;;;5074364;28;19924;-67
2023/06/30 13:32:25;;;;;;;;;;;;;;;;;;5067924;28;19935;-68
2023/06/30 13:34:51;;;;;;;;;;;;;;;;;;5063352;28;20376;-69
2023/06/30 13:37:17;;;;;;;;;;;;;;;;;;5071205;28;19924;-69
2023/06/30 13:39:43;;;;;;;;;;;;;;;;;;5070430;28;19966;-69
2023/06/30 13:42:09;;;;;;;;;;;;;;;;;;5070449;28;19939;-69
2023/06/30 13:44:35;;;;;;;;;;;;;;;;;;5068533;28;19975;-69
2023/06/30 13:47:01;;;;;;;;;;;;;;;;;;5064086;28;20312;-69
2023/06/30 13:49:26;;;;;;;;;;;;;;;;;;5068291;28;19920;-69
2023/06/30 13:51:52;;;;;;;;;;;;;;;;;;5071940;28;19928;-69
2023/06/30 13:54:18;;;;;;;;;;;;;;;;;;5064996;28;19925;-69
2023/06/30 13:56:44;;;;;;;;;;;;;;;;;;5066399;28;20365;-69
2023/06/30 13:59:10;;;;;;;;;;;;;;;;;;5072432;28;19928;-69
2023/06/30 14:01:36;;;;;;;;;;;;;;;;;;5067214;28;19925;-69
2023/06/30 14:04:02;;;;;;;;;;;;;;;;;;5068157;28;20011;-69
2023/06/30 14:06:28;;;;;;;;;;;;;;;;;;5070994;28;19995;-69
2023/06/30 14:08:54;;;;;;;;;;;;;;;;;;5069936;28;19920;-68
2023/06/30 14:11:20;;;;;;;;;;;;;;;;;;5069570;28;19964;-69
2023/06/30 14:13:46;;;;;;;;;;;;;;;;;;5067565;28;19920;-68
2023/06/30 14:16:12;;;;;;;;;;;;;;;;;;5068459;28;19932;-68
2023/06/30 14:18:38;;;;;;;;;;;;;;;;;;5065727;28;19925;-69
2023/06/30 14:21:04;;;;;;;;;;;;;;;;;;5064635;28;19936;-69
2023/06/30 14:23:30;;;;;;;;;;;;;;;;;;5070592;28;19963;-69
2023/06/30 14:25:56;;;;;;;;;;;;;;;;;;5071382;28;19920;-69
2023/06/30 14:28:22;;;;;;;;;;;;;;;;;;5069959;28;19921;-69
2023/06/30 14:30:48;;;;;;;;;;;;;;;;;;5065762;28;19925;-69
2023/06/30 14:33:14;;;;;;;;;;;;;;;;;;5065332;28;19936;-69
2023/06/30 14:35:39;;;;;;;;;;;;;;;;;;5062223;28;19928;-65
2023/06/30 14:38:05;;;;;;;;;;;;;;;;;;5058226;28;19935;-68
2023/06/30 14:40:31;;;;;;;;;;;;;;;;;;5068902;28;20321;-66
2023/06/30 14:43:00;;;;;;;;;;;;;;;;;;5067555;28;19971;-68
2023/06/30 14:45:28;;;;;;;;;;;;;;;;;;5062146;28;19928;-68
2023/06/30 14:47:54;;;;;;;;;;;;;;;;;;5069588;28;19932;-68
2023/06/30 14:50:20;;;;;;;;;;;;;;;;;;5067608;28;20081;-68
2023/06/30 14:52:46;;;;;;;;;;;;;;;;;;5070042;28;20042;-68
2023/06/30 14:55:12;;;;;;;;;;;;;;;;;;5048022;28;20393;-68
2023/06/30 14:57:38;;;;;;;;;;;;;;;;;;5045654;28;19936;-68
2023/06/30 15:00:04;;;;;;;;;;;;;;;;;;5071784;28;19927;-68
2023/06/30 15:02:30;;;;;;;;;;;;;;;;;;5066179;28;19935;-68
2023/06/30 15:04:56;;;;;;;;;;;;;;;;;;5068435;28;20390;-68
2023/06/30 15:07:22;;;;;;;;;;;;;;;;;;5065923;28;19935;-68
2023/06/30 15:09:48;;;;;;;;;;;;;;;;;;5059594;28;20046;-68
2023/06/30 15:12:14;;;;;;;;;;;;;;;;;;5061763;28;20269;-68
2023/06/30 15:14:40;;;;;;;;;;;;;;;;;;5065853;28;19928;-68
2023/06/30 15:17:06;;;;;;;;;;;;;;;;;;5069615;28;19928;-68
2023/06/30 15:19:33;;;;;;;;;;;;;;;;;;5064388;28;20239;-68
2023/06/30 15:21:58;;;;;;;;;;;;;;;;;;5061053;28;19974;-68
2023/06/30 15:24:24;;;;;;;;;;;;;;;;;;5066803;28;19948;-68
2023/06/30 15:26:50;;;;;;;;;;;;;;;;;;5063542;28;20437;-68
2023/06/30 15:29:16;;;;;;;;;;;;;;;;;;5063942;28;19920;-68
2023/06/30 15:31:42;;;;;;;;;;;;;;;;;;5067285;28;19924;-68
2023/06/30 15:34:08;;;;;;;;;;;;;;;;;;5061332;28;19967;-68
2023/06/30 15:36:34;;;;;;;;;;;;;;;;;;5048895;28;20842;-68
2023/06/30 15:39:00;;;;;;;;;;;;;;;;;;5065946;28;19924;-68
2023/06/30 15:41:26;;;;;;;;;;;;;;;;;;5066553;28;20266;-68
2023/06/30 15:43:52;;;;;;;;;;;;;;;;;;5064089;28;19993;-68
2023/06/30 15:46:18;;;;;;;;;;;;;;;;;;5067818;28;19936;-68
2023/06/30 15:48:44;;;;;;;;;;;;;;;;;;5069391;28;19974;-68
2023/06/30 15:51:09;;;;;;;;;;;;;;;;;;5067471;28;20358;-68
2023/06/30 15:53:35;;;;;;;;;;;;;;;;;;5054963;28;19925;-68
2023/06/30 15:56:01;;;;;;;;;;;;;;;;;;5066366;28;20380;-68
2023/06/30 15:58:27;;;;;;;;;;;;;;;;;;5069915;28;19974;-68
2023/06/30 16:00:53;;;;;;;;;;;;;;;;;;5067129;28;19925;-68
2023/06/30 16:03:19;;;;;;;;;;;;;;;;;;5068875;28;20860;-68
2023/06/30 16:05:45;;;;;;;;;;;;;;;;;;5070039;28;19924;-68
2023/06/30 16:08:11;;;;;;;;;;;;;;;;;;5067666;28;19927;-68
2023/06/30 16:10:37;;;;;;;;;;;;;;;;;;5049836;28;19920;-68
2023/06/30 16:13:02;;;;;;;;;;;;;;;;;;5071885;28;20007;-68
2023/06/30 16:15:28;;;;;;;;;;;;;;;;;;5072262;28;20447;-68
2023/06/30 16:17:54;;;;;;;;;;;;;;;;;;5064382;28;19920;-68
2023/06/30 16:20:20;;;;;;;;;;;;;;;;;;5075529;28;20353;-68
2023/06/30 16:22:46;;;;;;;;;;;;;;;;;;5054855;28;19932;-68
2023/06/30 16:25:12;;;;;;;;;;;;;;;;;;5037162;28;20015;-68
2023/06/30 16:27:38;;;;;;;;;;;;;;;;;;5058890;28;19921;-68
2023/06/30 16:30:04;;;;;;;;;;;;;;;;;;5072838;28;19924;-68
2023/06/30 16:32:30;;;;;;;;;;;;;;;;;;5073642;28;19928;-68
2023/06/30 16:34:55;;;;;;;;;;;;;;;;;;5061792;28;19925;-68
2023/06/30 16:37:21;;;;;;;;;;;;;;;;;;5070871;28;20449;-68